sensor_id;sensor_type;location;lat;lon;timestamp;P1;P2;P0
31330;PMS5003;34067;39.548;-76.088;2022-10-16T00:01:19;11;11;
31330;PMS5003;34067;39.548;-76.088;2022-10-16T00:03:49;14;12;
31330;PMS5003;34067;39.548;-76.088;2022-10-16T00:06:18;21;21;
31330;PMS5003;34067;39.548;-76.088;2022-10-16T00:08:48;13;12;
31330;PMS5003;34067;39.548;-76.088;2022-10-16T00:11:19;13;13;
31330;PMS5003;34067;39.548;-76.088;2022-10-16T00:13:49;14;14;
31330;PMS5003;34067;39.548;-76.088;2022-10-16T00:16:21;15;14;
31330;PMS5003;34067;39.548;-76.088;2022-10-16T00:18:49;12;12;
31330;PMS5003;34067;39.548;-76.088;2022-10-16T00:21:18;16;15;
31330;PMS5003;34067;39.548;-76.088;2022-10-16T00:23:50;20;18;
31330;PMS5003;34067;39.548;-76.088;2022-10-16T00:26:19;20;19;
31330;PMS5003;34067;39.548;-76.088;2022-10-16T00:28:48;23;21;
31330;PMS5003;34067;39.548;-76.088;2022-10-16T00:31:18;27;25;
31330;PMS5003;34067;39.548;-76.088;2022-10-16T00:33:47;26;24;
31330;PMS5003;34067;39.548;-76.088;2022-10-16T00:36:16;30;26;
31330;PMS5003;34067;39.548;-76.088;2022-10-16T00:38:46;29;27;
31330;PMS5003;34067;39.548;-76.088;2022-10-16T00:41:16;24;24;
31330;PMS5003;34067;39.548;-76.088;2022-10-16T00:43:46;28;25;
31330;PMS5003;34067;39.548;-76.088;2022-10-16T00:46:16;25;24;
31330;PMS5003;34067;39.548;-76.088;2022-10-16T00:48:48;25;24;
31330;PMS5003;34067;39.548;-76.088;2022-10-16T00:51:21;23;21;
31330;PMS5003;34067;39.548;-76.088;2022-10-16T00:53:55;20;20;
31330;PMS5003;34067;39.548;-76.088;2022-10-16T00:56:23;16;16;
31330;PMS5003;34067;39.548;-76.088;2022-10-16T00:58:51;19;17;
31330;PMS5003;34067;39.548;-76.088;2022-10-16T01:01:19;17;17;
31330;PMS5003;34067;39.548;-76.088;2022-10-16T01:03:47;16;15;
31330;PMS5003;34067;39.548;-76.088;2022-10-16T01:06:21;22;20;
31330;PMS5003;34067;39.548;-76.088;2022-10-16T01:08:55;18;18;
31330;PMS5003;34067;39.548;-76.088;2022-10-16T01:11:37;19;19;
31330;PMS5003;34067;39.548;-76.088;2022-10-16T01:14:21;24;24;
31330;PMS5003;34067;39.548;-76.088;2022-10-16T01:16:56;25;25;
31330;PMS5003;34067;39.548;-76.088;2022-10-16T01:19:39;25;24;
31330;PMS5003;34067;39.548;-76.088;2022-10-16T01:22:22;20;20;
31330;PMS5003;34067;39.548;-76.088;2022-10-16T01:24:59;19;19;
31330;PMS5003;34067;39.548;-76.088;2022-10-16T01:27:36;22;21;
31330;PMS5003;34067;39.548;-76.088;2022-10-16T01:30:10;22;22;
31330;PMS5003;34067;39.548;-76.088;2022-10-16T01:32:45;18;18;
31330;PMS5003;34067;39.548;-76.088;2022-10-16T01:35:18;23;22;
31330;PMS5003;34067;39.548;-76.088;2022-10-16T01:37:53;23;22;
31330;PMS5003;34067;39.548;-76.088;2022-10-16T01:40:28;26;25;
31330;PMS5003;34067;39.548;-76.088;2022-10-16T01:42:59;26;24;
31330;PMS5003;34067;39.548;-76.088;2022-10-16T01:45:31;31;29;
31330;PMS5003;34067;39.548;-76.088;2022-10-16T01:48:02;32;31;
31330;PMS5003;34067;39.548;-76.088;2022-10-16T01:50:33;35;32;
31330;PMS5003;34067;39.548;-76.088;2022-10-16T01:53:04;30;29;
31330;PMS5003;34067;39.548;-76.088;2022-10-16T01:55:36;30;29;
31330;PMS5003;34067;39.548;-76.088;2022-10-16T01:58:08;25;24;
31330;PMS5003;34067;39.548;-76.088;2022-10-16T02:00:37;24;23;
31330;PMS5003;34067;39.548;-76.088;2022-10-16T02:03:07;28;27;
31330;PMS5003;34067;39.548;-76.088;2022-10-16T02:05:38;36;36;
31330;PMS5003;34067;39.548;-76.088;2022-10-16T02:08:12;32;31;
31330;PMS5003;34067;39.548;-76.088;2022-10-16T02:10:40;39;35;
31330;PMS5003;34067;39.548;-76.088;2022-10-16T02:13:09;35;33;
31330;PMS5003;34067;39.548;-76.088;2022-10-16T02:15:40;35;32;
31330;PMS5003;34067;39.548;-76.088;2022-10-16T02:18:08;36;35;
31330;PMS5003;34067;39.548;-76.088;2022-10-16T02:20:38;36;32;
31330;PMS5003;34067;39.548;-76.088;2022-10-16T02:23:12;36;34;
31330;PMS5003;34067;39.548;-76.088;2022-10-16T02:25:46;34;34;
31330;PMS5003;34067;39.548;-76.088;2022-10-16T02:28:17;36;33;
31330;PMS5003;34067;39.548;-76.088;2022-10-16T02:30:53;31;31;
31330;PMS5003;34067;39.548;-76.088;2022-10-16T02:33:25;32;31;
31330;PMS5003;34067;39.548;-76.088;2022-10-16T02:35:56;29;28;
31330;PMS5003;34067;39.548;-76.088;2022-10-16T02:38:25;32;32;
31330;PMS5003;34067;39.548;-76.088;2022-10-16T02:40:53;26;26;
31330;PMS5003;34067;39.548;-76.088;2022-10-16T02:43:21;42;40;
31330;PMS5003;34067;39.548;-76.088;2022-10-16T02:45:51;39;37;
31330;PMS5003;34067;39.548;-76.088;2022-10-16T02:48:19;27;26;
31330;PMS5003;34067;39.548;-76.088;2022-10-16T02:50:46;30;29;
31330;PMS5003;34067;39.548;-76.088;2022-10-16T02:53:14;29;28;
31330;PMS5003;34067;39.548;-76.088;2022-10-16T02:55:41;20;19;
31330;PMS5003;34067;39.548;-76.088;2022-10-16T02:58:09;27;27;
31330;PMS5003;34067;39.548;-76.088;2022-10-16T03:00:37;40;40;
31330;PMS5003;34067;39.548;-76.088;2022-10-16T03:03:05;27;26;
31330;PMS5003;34067;39.548;-76.088;2022-10-16T03:05:33;39;39;
31330;PMS5003;34067;39.548;-76.088;2022-10-16T03:08:01;84;83;
31330;PMS5003;34067;39.548;-76.088;2022-10-16T03:10:29;77;76;
31330;PMS5003;34067;39.548;-76.088;2022-10-16T03:12:56;115;114;
31330;PMS5003;34067;39.548;-76.088;2022-10-16T03:15:24;25;24;
31330;PMS5003;34067;39.548;-76.088;2022-10-16T03:17:52;20;18;
31330;PMS5003;34067;39.548;-76.088;2022-10-16T03:20:20;38;37;
31330;PMS5003;34067;39.548;-76.088;2022-10-16T03:22:49;27;25;
31330;PMS5003;34067;39.548;-76.088;2022-10-16T03:25:16;37;37;
31330;PMS5003;34067;39.548;-76.088;2022-10-16T03:27:45;68;67;
31330;PMS5003;34067;39.548;-76.088;2022-10-16T03:30:12;39;36;
31330;PMS5003;34067;39.548;-76.088;2022-10-16T03:32:41;91;90;
31330;PMS5003;34067;39.548;-76.088;2022-10-16T03:35:10;56;56;
31330;PMS5003;34067;39.548;-76.088;2022-10-16T03:37:38;36;36;
31330;PMS5003;34067;39.548;-76.088;2022-10-16T03:40:06;66;64;
31330;PMS5003;34067;39.548;-76.088;2022-10-16T03:42:34;32;32;
31330;PMS5003;34067;39.548;-76.088;2022-10-16T03:45:03;36;36;
31330;PMS5003;34067;39.548;-76.088;2022-10-16T03:47:32;37;36;
31330;PMS5003;34067;39.548;-76.088;2022-10-16T03:50:00;54;52;
31330;PMS5003;34067;39.548;-76.088;2022-10-16T03:52:29;40;38;
31330;PMS5003;34067;39.548;-76.088;2022-10-16T03:54:57;52;51;
31330;PMS5003;34067;39.548;-76.088;2022-10-16T03:57:26;40;39;
31330;PMS5003;34067;39.548;-76.088;2022-10-16T03:59:54;38;38;
31330;PMS5003;34067;39.548;-76.088;2022-10-16T04:02:22;26;26;
31330;PMS5003;34067;39.548;-76.088;2022-10-16T04:04:50;30;29;
31330;PMS5003;34067;39.548;-76.088;2022-10-16T04:07:18;27;27;
31330;PMS5003;34067;39.548;-76.088;2022-10-16T04:09:46;18;17;
31330;PMS5003;34067;39.548;-76.088;2022-10-16T04:12:14;18;18;
31330;PMS5003;34067;39.548;-76.088;2022-10-16T04:14:43;22;20;
31330;PMS5003;34067;39.548;-76.088;2022-10-16T04:17:10;20;20;
31330;PMS5003;34067;39.548;-76.088;2022-10-16T04:19:38;20;18;
31330;PMS5003;34067;39.548;-76.088;2022-10-16T04:22:06;23;22;
31330;PMS5003;34067;39.548;-76.088;2022-10-16T04:24:40;18;17;
31330;PMS5003;34067;39.548;-76.088;2022-10-16T04:27:11;20;19;
31330;PMS5003;34067;39.548;-76.088;2022-10-16T04:29:39;22;21;
31330;PMS5003;34067;39.548;-76.088;2022-10-16T04:32:07;21;19;
31330;PMS5003;34067;39.548;-76.088;2022-10-16T04:34:36;21;20;
31330;PMS5003;34067;39.548;-76.088;2022-10-16T04:37:05;23;22;
31330;PMS5003;34067;39.548;-76.088;2022-10-16T04:39:33;18;18;
31330;PMS5003;34067;39.548;-76.088;2022-10-16T04:42:01;21;20;
31330;PMS5003;34067;39.548;-76.088;2022-10-16T04:44:29;24;21;
31330;PMS5003;34067;39.548;-76.088;2022-10-16T04:46:58;19;19;
31330;PMS5003;34067;39.548;-76.088;2022-10-16T04:49:26;21;20;
31330;PMS5003;34067;39.548;-76.088;2022-10-16T04:51:54;19;18;
31330;PMS5003;34067;39.548;-76.088;2022-10-16T04:54:22;21;19;
31330;PMS5003;34067;39.548;-76.088;2022-10-16T04:56:50;21;21;
31330;PMS5003;34067;39.548;-76.088;2022-10-16T04:59:18;18;18;
31330;PMS5003;34067;39.548;-76.088;2022-10-16T05:03:08;20;19;
31330;PMS5003;34067;39.548;-76.088;2022-10-16T05:05:36;19;19;
31330;PMS5003;34067;39.548;-76.088;2022-10-16T05:08:09;21;20;
31330;PMS5003;34067;39.548;-76.088;2022-10-16T05:10:36;23;21;
31330;PMS5003;34067;39.548;-76.088;2022-10-16T05:13:04;19;18;
31330;PMS5003;34067;39.548;-76.088;2022-10-16T05:15:32;18;18;
31330;PMS5003;34067;39.548;-76.088;2022-10-16T05:18:00;22;19;
31330;PMS5003;34067;39.548;-76.088;2022-10-16T05:20:29;22;21;
31330;PMS5003;34067;39.548;-76.088;2022-10-16T05:22:56;23;21;
31330;PMS5003;34067;39.548;-76.088;2022-10-16T05:25:25;18;18;
31330;PMS5003;34067;39.548;-76.088;2022-10-16T05:27:53;26;25;
31330;PMS5003;34067;39.548;-76.088;2022-10-16T05:30:21;21;21;
31330;PMS5003;34067;39.548;-76.088;2022-10-16T05:32:49;21;21;
31330;PMS5003;34067;39.548;-76.088;2022-10-16T05:35:18;21;21;
31330;PMS5003;34067;39.548;-76.088;2022-10-16T05:37:47;20;20;
31330;PMS5003;34067;39.548;-76.088;2022-10-16T05:40:15;26;24;
31330;PMS5003;34067;39.548;-76.088;2022-10-16T05:42:43;21;20;
31330;PMS5003;34067;39.548;-76.088;2022-10-16T05:45:11;22;20;
31330;PMS5003;34067;39.548;-76.088;2022-10-16T05:47:39;29;27;
31330;PMS5003;34067;39.548;-76.088;2022-10-16T05:50:07;24;23;
31330;PMS5003;34067;39.548;-76.088;2022-10-16T05:52:35;23;22;
31330;PMS5003;34067;39.548;-76.088;2022-10-16T05:55:04;23;22;
31330;PMS5003;34067;39.548;-76.088;2022-10-16T05:57:32;25;23;
31330;PMS5003;34067;39.548;-76.088;2022-10-16T06:00:00;24;24;
31330;PMS5003;34067;39.548;-76.088;2022-10-16T06:02:29;24;22;
31330;PMS5003;34067;39.548;-76.088;2022-10-16T06:04:57;25;25;
31330;PMS5003;34067;39.548;-76.088;2022-10-16T06:07:24;26;25;
31330;PMS5003;34067;39.548;-76.088;2022-10-16T06:09:52;23;22;
31330;PMS5003;34067;39.548;-76.088;2022-10-16T06:12:21;27;25;
31330;PMS5003;34067;39.548;-76.088;2022-10-16T06:14:49;28;26;
31330;PMS5003;34067;39.548;-76.088;2022-10-16T06:17:16;22;20;
31330;PMS5003;34067;39.548;-76.088;2022-10-16T06:19:44;27;26;
31330;PMS5003;34067;39.548;-76.088;2022-10-16T06:22:11;25;24;
31330;PMS5003;34067;39.548;-76.088;2022-10-16T06:24:39;21;20;
31330;PMS5003;34067;39.548;-76.088;2022-10-16T06:27:07;22;19;
31330;PMS5003;34067;39.548;-76.088;2022-10-16T06:29:35;21;20;
31330;PMS5003;34067;39.548;-76.088;2022-10-16T06:32:03;23;22;
31330;PMS5003;34067;39.548;-76.088;2022-10-16T06:34:31;19;19;
31330;PMS5003;34067;39.548;-76.088;2022-10-16T06:37:00;26;24;
31330;PMS5003;34067;39.548;-76.088;2022-10-16T06:39:28;25;25;
31330;PMS5003;34067;39.548;-76.088;2022-10-16T06:41:56;28;27;
31330;PMS5003;34067;39.548;-76.088;2022-10-16T06:44:23;27;26;
31330;PMS5003;34067;39.548;-76.088;2022-10-16T06:46:51;23;23;
31330;PMS5003;34067;39.548;-76.088;2022-10-16T06:49:19;23;20;
31330;PMS5003;34067;39.548;-76.088;2022-10-16T06:51:47;23;22;
31330;PMS5003;34067;39.548;-76.088;2022-10-16T06:54:15;26;25;
31330;PMS5003;34067;39.548;-76.088;2022-10-16T06:56:42;27;25;
31330;PMS5003;34067;39.548;-76.088;2022-10-16T06:59:10;23;22;
31330;PMS5003;34067;39.548;-76.088;2022-10-16T07:01:37;20;19;
31330;PMS5003;34067;39.548;-76.088;2022-10-16T07:04:05;23;22;
31330;PMS5003;34067;39.548;-76.088;2022-10-16T07:06:33;27;25;
31330;PMS5003;34067;39.548;-76.088;2022-10-16T07:09:03;27;25;
31330;PMS5003;34067;39.548;-76.088;2022-10-16T07:11:33;26;24;
31330;PMS5003;34067;39.548;-76.088;2022-10-16T07:14:02;27;26;
31330;PMS5003;34067;39.548;-76.088;2022-10-16T07:16:31;28;26;
31330;PMS5003;34067;39.548;-76.088;2022-10-16T07:19:00;28;27;
31330;PMS5003;34067;39.548;-76.088;2022-10-16T07:21:30;30;30;
31330;PMS5003;34067;39.548;-76.088;2022-10-16T07:23:59;29;27;
31330;PMS5003;34067;39.548;-76.088;2022-10-16T07:26:28;28;27;
31330;PMS5003;34067;39.548;-76.088;2022-10-16T07:28:57;30;28;
31330;PMS5003;34067;39.548;-76.088;2022-10-16T07:31:24;28;27;
31330;PMS5003;34067;39.548;-76.088;2022-10-16T07:33:53;31;28;
31330;PMS5003;34067;39.548;-76.088;2022-10-16T07:36:21;31;29;
31330;PMS5003;34067;39.548;-76.088;2022-10-16T07:38:49;30;27;
31330;PMS5003;34067;39.548;-76.088;2022-10-16T07:41:18;28;24;
31330;PMS5003;34067;39.548;-76.088;2022-10-16T07:43:46;32;31;
31330;PMS5003;34067;39.548;-76.088;2022-10-16T07:46:16;25;24;
31330;PMS5003;34067;39.548;-76.088;2022-10-16T07:48:45;24;23;
31330;PMS5003;34067;39.548;-76.088;2022-10-16T07:51:13;29;24;
31330;PMS5003;34067;39.548;-76.088;2022-10-16T07:53:43;28;26;
31330;PMS5003;34067;39.548;-76.088;2022-10-16T07:56:11;34;31;
31330;PMS5003;34067;39.548;-76.088;2022-10-16T07:58:39;32;28;
31330;PMS5003;34067;39.548;-76.088;2022-10-16T08:01:08;33;31;
31330;PMS5003;34067;39.548;-76.088;2022-10-16T08:03:38;48;44;
31330;PMS5003;34067;39.548;-76.088;2022-10-16T08:06:09;35;34;
31330;PMS5003;34067;39.548;-76.088;2022-10-16T08:08:38;44;42;
31330;PMS5003;34067;39.548;-76.088;2022-10-16T08:11:05;32;32;
31330;PMS5003;34067;39.548;-76.088;2022-10-16T08:13:33;39;38;
31330;PMS5003;34067;39.548;-76.088;2022-10-16T08:16:01;38;37;
31330;PMS5003;34067;39.548;-76.088;2022-10-16T08:18:29;37;35;
31330;PMS5003;34067;39.548;-76.088;2022-10-16T08:20:57;43;38;
31330;PMS5003;34067;39.548;-76.088;2022-10-16T08:23:26;52;44;
31330;PMS5003;34067;39.548;-76.088;2022-10-16T08:25:54;40;38;
31330;PMS5003;34067;39.548;-76.088;2022-10-16T08:28:28;38;35;
31330;PMS5003;34067;39.548;-76.088;2022-10-16T08:30:56;39;38;
31330;PMS5003;34067;39.548;-76.088;2022-10-16T08:33:33;30;29;
31330;PMS5003;34067;39.548;-76.088;2022-10-16T08:36:02;37;34;
31330;PMS5003;34067;39.548;-76.088;2022-10-16T08:38:30;37;37;
31330;PMS5003;34067;39.548;-76.088;2022-10-16T08:41:08;43;39;
31330;PMS5003;34067;39.548;-76.088;2022-10-16T08:45:01;29;27;
31330;PMS5003;34067;39.548;-76.088;2022-10-16T08:47:44;28;26;
31330;PMS5003;34067;39.548;-76.088;2022-10-16T08:50:18;31;29;
31330;PMS5003;34067;39.548;-76.088;2022-10-16T08:52:50;29;26;
31330;PMS5003;34067;39.548;-76.088;2022-10-16T08:55:25;28;28;
31330;PMS5003;34067;39.548;-76.088;2022-10-16T08:57:58;29;25;
31330;PMS5003;34067;39.548;-76.088;2022-10-16T09:00:26;23;23;
31330;PMS5003;34067;39.548;-76.088;2022-10-16T09:02:58;29;26;
31330;PMS5003;34067;39.548;-76.088;2022-10-16T09:05:43;24;23;
31330;PMS5003;34067;39.548;-76.088;2022-10-16T09:08:22;32;29;
31330;PMS5003;34067;39.548;-76.088;2022-10-16T09:11:05;28;27;
31330;PMS5003;34067;39.548;-76.088;2022-10-16T09:13:40;28;26;
31330;PMS5003;34067;39.548;-76.088;2022-10-16T09:16:18;23;23;
31330;PMS5003;34067;39.548;-76.088;2022-10-16T09:18:53;28;24;
31330;PMS5003;34067;39.548;-76.088;2022-10-16T09:21:28;27;25;
31330;PMS5003;34067;39.548;-76.088;2022-10-16T09:23:59;25;25;
31330;PMS5003;34067;39.548;-76.088;2022-10-16T09:26:34;22;21;
31330;PMS5003;34067;39.548;-76.088;2022-10-16T09:29:02;22;21;
31330;PMS5003;34067;39.548;-76.088;2022-10-16T09:31:31;22;22;
31330;PMS5003;34067;39.548;-76.088;2022-10-16T09:34:02;28;23;
31330;PMS5003;34067;39.548;-76.088;2022-10-16T09:36:33;24;23;
31330;PMS5003;34067;39.548;-76.088;2022-10-16T09:39:07;23;22;
31330;PMS5003;34067;39.548;-76.088;2022-10-16T09:41:36;20;20;
31330;PMS5003;34067;39.548;-76.088;2022-10-16T09:44:06;16;16;
31330;PMS5003;34067;39.548;-76.088;2022-10-16T09:46:48;19;18;
31330;PMS5003;34067;39.548;-76.088;2022-10-16T09:49:21;18;18;
31330;PMS5003;34067;39.548;-76.088;2022-10-16T09:51:50;18;16;
31330;PMS5003;34067;39.548;-76.088;2022-10-16T09:54:29;20;19;
31330;PMS5003;34067;39.548;-76.088;2022-10-16T09:57:04;16;16;
31330;PMS5003;34067;39.548;-76.088;2022-10-16T09:59:33;19;18;
31330;PMS5003;34067;39.548;-76.088;2022-10-16T10:02:01;20;17;
31330;PMS5003;34067;39.548;-76.088;2022-10-16T10:04:39;21;21;
31330;PMS5003;34067;39.548;-76.088;2022-10-16T10:07:17;16;16;
31330;PMS5003;34067;39.548;-76.088;2022-10-16T10:09:50;18;17;
31330;PMS5003;34067;39.548;-76.088;2022-10-16T10:12:19;20;19;
31330;PMS5003;34067;39.548;-76.088;2022-10-16T10:14:50;16;16;
31330;PMS5003;34067;39.548;-76.088;2022-10-16T10:17:21;18;18;
31330;PMS5003;34067;39.548;-76.088;2022-10-16T10:19:51;17;17;
31330;PMS5003;34067;39.548;-76.088;2022-10-16T10:22:25;20;20;
31330;PMS5003;34067;39.548;-76.088;2022-10-16T10:24:57;20;19;
31330;PMS5003;34067;39.548;-76.088;2022-10-16T10:27:41;20;18;
31330;PMS5003;34067;39.548;-76.088;2022-10-16T10:30:20;24;23;
31330;PMS5003;34067;39.548;-76.088;2022-10-16T10:32:57;22;20;
31330;PMS5003;34067;39.548;-76.088;2022-10-16T10:35:40;24;21;
31330;PMS5003;34067;39.548;-76.088;2022-10-16T10:38:22;16;15;
31330;PMS5003;34067;39.548;-76.088;2022-10-16T10:41:01;21;20;
31330;PMS5003;34067;39.548;-76.088;2022-10-16T10:43:47;17;17;
31330;PMS5003;34067;39.548;-76.088;2022-10-16T10:46:25;17;15;
31330;PMS5003;34067;39.548;-76.088;2022-10-16T10:49:08;16;16;
31330;PMS5003;34067;39.548;-76.088;2022-10-16T10:51:55;15;15;
31330;PMS5003;34067;39.548;-76.088;2022-10-16T10:54:40;18;17;
31330;PMS5003;34067;39.548;-76.088;2022-10-16T10:57:20;16;15;
31330;PMS5003;34067;39.548;-76.088;2022-10-16T11:00:01;17;16;
31330;PMS5003;34067;39.548;-76.088;2022-10-16T11:02:40;17;17;
31330;PMS5003;34067;39.548;-76.088;2022-10-16T11:05:20;16;15;
31330;PMS5003;34067;39.548;-76.088;2022-10-16T11:07:58;12;11;
31330;PMS5003;34067;39.548;-76.088;2022-10-16T11:10:30;14;14;
31330;PMS5003;34067;39.548;-76.088;2022-10-16T11:13:08;14;14;
31330;PMS5003;34067;39.548;-76.088;2022-10-16T11:15:44;15;14;
31330;PMS5003;34067;39.548;-76.088;2022-10-16T11:18:18;14;14;
31330;PMS5003;34067;39.548;-76.088;2022-10-16T11:20:51;16;14;
31330;PMS5003;34067;39.548;-76.088;2022-10-16T11:23:23;14;14;
31330;PMS5003;34067;39.548;-76.088;2022-10-16T11:25:56;15;15;
31330;PMS5003;34067;39.548;-76.088;2022-10-16T11:28:31;17;16;
31330;PMS5003;34067;39.548;-76.088;2022-10-16T11:31:03;12;11;
31330;PMS5003;34067;39.548;-76.088;2022-10-16T11:33:37;17;16;
31330;PMS5003;34067;39.548;-76.088;2022-10-16T11:36:11;14;14;
31330;PMS5003;34067;39.548;-76.088;2022-10-16T11:38:47;14;14;
31330;PMS5003;34067;39.548;-76.088;2022-10-16T11:41:22;18;14;
31330;PMS5003;34067;39.548;-76.088;2022-10-16T11:44:00;19;17;
31330;PMS5003;34067;39.548;-76.088;2022-10-16T11:46:42;17;16;
31330;PMS5003;34067;39.548;-76.088;2022-10-16T11:49:20;13;13;
31330;PMS5003;34067;39.548;-76.088;2022-10-16T11:51:51;18;18;
31330;PMS5003;34067;39.548;-76.088;2022-10-16T11:54:28;15;14;
31330;PMS5003;34067;39.548;-76.088;2022-10-16T11:57:02;13;12;
31330;PMS5003;34067;39.548;-76.088;2022-10-16T11:59:41;12;12;
31330;PMS5003;34067;39.548;-76.088;2022-10-16T12:02:33;15;14;
31330;PMS5003;34067;39.548;-76.088;2022-10-16T12:05:14;13;13;
31330;PMS5003;34067;39.548;-76.088;2022-10-16T12:07:54;14;12;
31330;PMS5003;34067;39.548;-76.088;2022-10-16T12:10:29;13;13;
31330;PMS5003;34067;39.548;-76.088;2022-10-16T12:12:57;11;11;
31330;PMS5003;34067;39.548;-76.088;2022-10-16T12:15:26;12;11;
31330;PMS5003;34067;39.548;-76.088;2022-10-16T12:17:55;10;9;
31330;PMS5003;34067;39.548;-76.088;2022-10-16T12:20:25;14;13;
31330;PMS5003;34067;39.548;-76.088;2022-10-16T12:22:55;15;14;
31330;PMS5003;34067;39.548;-76.088;2022-10-16T12:25:26;19;17;
31330;PMS5003;34067;39.548;-76.088;2022-10-16T12:28:00;16;14;
31330;PMS5003;34067;39.548;-76.088;2022-10-16T12:30:31;16;15;
31330;PMS5003;34067;39.548;-76.088;2022-10-16T12:33:01;12;12;
31330;PMS5003;34067;39.548;-76.088;2022-10-16T12:35:32;12;11;
31330;PMS5003;34067;39.548;-76.088;2022-10-16T12:38:05;11;11;
31330;PMS5003;34067;39.548;-76.088;2022-10-16T12:40:40;14;13;
31330;PMS5003;34067;39.548;-76.088;2022-10-16T12:43:12;12;10;
31330;PMS5003;34067;39.548;-76.088;2022-10-16T12:46:01;12;11;
31330;PMS5003;34067;39.548;-76.088;2022-10-16T12:48:31;12;11;
31330;PMS5003;34067;39.548;-76.088;2022-10-16T12:51:10;9;9;
31330;PMS5003;34067;39.548;-76.088;2022-10-16T12:53:38;9;8;
31330;PMS5003;34067;39.548;-76.088;2022-10-16T12:56:11;8;6;
31330;PMS5003;34067;39.548;-76.088;2022-10-16T12:58:49;11;9;
31330;PMS5003;34067;39.548;-76.088;2022-10-16T13:01:29;7;7;
31330;PMS5003;34067;39.548;-76.088;2022-10-16T13:04:08;14;14;
31330;PMS5003;34067;39.548;-76.088;2022-10-16T13:06:51;11;10;
31330;PMS5003;34067;39.548;-76.088;2022-10-16T13:09:31;10;9;
31330;PMS5003;34067;39.548;-76.088;2022-10-16T13:12:15;12;11;
31330;PMS5003;34067;39.548;-76.088;2022-10-16T13:15:01;15;14;
31330;PMS5003;34067;39.548;-76.088;2022-10-16T13:17:48;10;10;
31330;PMS5003;34067;39.548;-76.088;2022-10-16T13:20:25;12;11;
31330;PMS5003;34067;39.548;-76.088;2022-10-16T13:23:04;11;10;
31330;PMS5003;34067;39.548;-76.088;2022-10-16T13:25:45;9;8;
31330;PMS5003;34067;39.548;-76.088;2022-10-16T13:28:28;10;8;
31330;PMS5003;34067;39.548;-76.088;2022-10-16T13:30:59;7;7;
31330;PMS5003;34067;39.548;-76.088;2022-10-16T13:33:31;7;7;
31330;PMS5003;34067;39.548;-76.088;2022-10-16T13:36:03;9;8;
31330;PMS5003;34067;39.548;-76.088;2022-10-16T13:38:32;8;8;
31330;PMS5003;34067;39.548;-76.088;2022-10-16T13:41:02;8;6;
31330;PMS5003;34067;39.548;-76.088;2022-10-16T13:43:32;9;9;
31330;PMS5003;34067;39.548;-76.088;2022-10-16T13:46:04;9;8;
31330;PMS5003;34067;39.548;-76.088;2022-10-16T13:48:37;10;9;
31330;PMS5003;34067;39.548;-76.088;2022-10-16T13:51:06;10;9;
31330;PMS5003;34067;39.548;-76.088;2022-10-16T13:53:39;10;10;
31330;PMS5003;34067;39.548;-76.088;2022-10-16T13:56:10;7;7;
31330;PMS5003;34067;39.548;-76.088;2022-10-16T13:58:40;10;8;
31330;PMS5003;34067;39.548;-76.088;2022-10-16T14:01:15;9;8;
31330;PMS5003;34067;39.548;-76.088;2022-10-16T14:03:44;11;9;
31330;PMS5003;34067;39.548;-76.088;2022-10-16T14:06:14;6;5;
31330;PMS5003;34067;39.548;-76.088;2022-10-16T14:08:44;7;7;
31330;PMS5003;34067;39.548;-76.088;2022-10-16T14:11:22;8;7;
31330;PMS5003;34067;39.548;-76.088;2022-10-16T14:13:51;7;7;
31330;PMS5003;34067;39.548;-76.088;2022-10-16T14:16:20;7;7;
31330;PMS5003;34067;39.548;-76.088;2022-10-16T14:18:52;4;4;
31330;PMS5003;34067;39.548;-76.088;2022-10-16T14:21:25;7;6;
31330;PMS5003;34067;39.548;-76.088;2022-10-16T14:23:53;6;5;
31330;PMS5003;34067;39.548;-76.088;2022-10-16T14:26:22;6;6;
31330;PMS5003;34067;39.548;-76.088;2022-10-16T14:29:11;5;5;
31330;PMS5003;34067;39.548;-76.088;2022-10-16T14:31:40;6;6;
31330;PMS5003;34067;39.548;-76.088;2022-10-16T14:34:26;6;6;
31330;PMS5003;34067;39.548;-76.088;2022-10-16T14:36:57;8;6;
31330;PMS5003;34067;39.548;-76.088;2022-10-16T14:39:27;7;6;
31330;PMS5003;34067;39.548;-76.088;2022-10-16T14:41:56;6;6;
31330;PMS5003;34067;39.548;-76.088;2022-10-16T14:44:27;9;7;
31330;PMS5003;34067;39.548;-76.088;2022-10-16T14:46:58;5;4;
31330;PMS5003;34067;39.548;-76.088;2022-10-16T14:49:34;7;7;
31330;PMS5003;34067;39.548;-76.088;2022-10-16T14:52:07;6;6;
31330;PMS5003;34067;39.548;-76.088;2022-10-16T14:54:37;8;7;
31330;PMS5003;34067;39.548;-76.088;2022-10-16T14:57:05;8;8;
31330;PMS5003;34067;39.548;-76.088;2022-10-16T14:59:42;9;8;
31330;PMS5003;34067;39.548;-76.088;2022-10-16T15:02:16;26;25;
31330;PMS5003;34067;39.548;-76.088;2022-10-16T15:04:52;23;23;
31330;PMS5003;34067;39.548;-76.088;2022-10-16T15:07:20;26;25;
31330;PMS5003;34067;39.548;-76.088;2022-10-16T15:09:49;29;28;
31330;PMS5003;34067;39.548;-76.088;2022-10-16T15:12:17;34;34;
31330;PMS5003;34067;39.548;-76.088;2022-10-16T15:14:45;30;30;
31330;PMS5003;34067;39.548;-76.088;2022-10-16T15:17:13;38;37;
31330;PMS5003;34067;39.548;-76.088;2022-10-16T15:19:41;34;33;
31330;PMS5003;34067;39.548;-76.088;2022-10-16T15:22:09;22;22;
31330;PMS5003;34067;39.548;-76.088;2022-10-16T15:24:38;13;13;
31330;PMS5003;34067;39.548;-76.088;2022-10-16T15:27:06;7;6;
31330;PMS5003;34067;39.548;-76.088;2022-10-16T15:29:34;7;7;
31330;PMS5003;34067;39.548;-76.088;2022-10-16T15:32:02;6;5;
31330;PMS5003;34067;39.548;-76.088;2022-10-16T15:34:30;6;5;
31330;PMS5003;34067;39.548;-76.088;2022-10-16T15:36:59;6;6;
31330;PMS5003;34067;39.548;-76.088;2022-10-16T15:39:30;7;6;
31330;PMS5003;34067;39.548;-76.088;2022-10-16T15:41:58;5;4;
31330;PMS5003;34067;39.548;-76.088;2022-10-16T15:44:26;6;4;
31330;PMS5003;34067;39.548;-76.088;2022-10-16T15:46:55;7;5;
31330;PMS5003;34067;39.548;-76.088;2022-10-16T15:49:23;5;5;
31330;PMS5003;34067;39.548;-76.088;2022-10-16T15:51:51;8;8;
31330;PMS5003;34067;39.548;-76.088;2022-10-16T15:54:19;9;9;
31330;PMS5003;34067;39.548;-76.088;2022-10-16T15:56:47;4;4;
31330;PMS5003;34067;39.548;-76.088;2022-10-16T15:59:15;4;4;
31330;PMS5003;34067;39.548;-76.088;2022-10-16T16:01:43;6;4;
31330;PMS5003;34067;39.548;-76.088;2022-10-16T16:04:11;4;4;
31330;PMS5003;34067;39.548;-76.088;2022-10-16T16:06:39;3;3;
31330;PMS5003;34067;39.548;-76.088;2022-10-16T16:09:07;5;5;
31330;PMS5003;34067;39.548;-76.088;2022-10-16T16:11:35;6;5;
31330;PMS5003;34067;39.548;-76.088;2022-10-16T16:14:03;5;5;
31330;PMS5003;34067;39.548;-76.088;2022-10-16T16:16:31;6;6;
31330;PMS5003;34067;39.548;-76.088;2022-10-16T16:18:59;5;5;
31330;PMS5003;34067;39.548;-76.088;2022-10-16T16:21:27;4;3;